Weather History for McComb, MS

Change the Weather History Date:

Tuesday, November 22, 2011

  Actual Average Record
Temperature  
Mean Temperature 70 °F -  
Max Temperature 78 °F 67 °F 82 °F (1973)
Min Temperature 62 °F 42 °F 25 °F (1964)
Cooling Degree Days 5    
Growing Degree Days 20 (Base 50)    
Moisture  
Dew Point 65 °F    
Average Humidity 95    
Maximum Humidity 100    
Minimum Humidity 69    
Precipitation  
Precipitation 0.89 in - - ()
Sea Level Pressure  
Sea Level Pressure 30.02 in    
Wind  
Wind Speed 7 mph (SSW)    
Max Wind Speed 15 mph    
Max Gust Speed 30 mph    
Visibility 8 miles    
Events Rain , Thunderstorm    
Averages and records for this station are not official NWS values.
T = Trace of Precipitation, MM = Missing Value Source: NWS Daily Summary

Daily Weather History Graph

Daily Weather History Graph

Search for Another Location

Airport:

Trip Planner

Search our weather history database for the weather conditions in past years. The results will help you decide how hot, cold, wet, or windy it might be!

Date:

Astronomy

Nov. 22, 2011 Rise Set
Actual Time 6:34 AM CST 5:00 PM CST
Civil Twilight 6:08 AM CST 5:26 PM CST
Nautical Twilight 5:39 AM CST 5:56 PM CST
Astronomical Twilight 5:10 AM CST 6:25 PM CST
Moon 3:33 AM CST (11/22) 2:54 PM CST (11/22)
Length of Visible Light 11h 17m
Length of Day
10h 25m
Waning Crescent, 9% of the Moon is Illuminated
Nov 22
Waning Crescent
Nov 25
New
Dec 2
First Quarter
Dec 10
Full
Dec 17
Last Quarter

Hourly Weather History & Observations

Time (CST) Temp. Dew Point Humidity Pressure Visibility Wind Dir Wind Speed Gust Speed Precip Events Conditions
12:53 AM 70.0 °F 68.0 °F 93% 30.02 in 10.0 mi SSE 8.1 mph - N/A   Overcast
1:42 AM 69.8 °F 69.8 °F 100% 30.01 in 5.0 mi South 6.9 mph - 0.00 in Rain Light Rain
1:53 AM 70.0 °F 69.1 °F 97% 30.00 in 5.0 mi SSW 5.8 mph - 0.01 in Rain Light Rain
2:23 AM 69.8 °F 69.8 °F 100% 30.00 in 10.0 mi South 15.0 mph 21.9 mph 0.00 in   Mostly Cloudy
2:33 AM 69.8 °F 69.8 °F 100% 30.00 in 10.0 mi South 11.5 mph 19.6 mph 0.00 in   Overcast
2:53 AM 71.1 °F 69.1 °F 93% 29.99 in 10.0 mi South 13.8 mph 20.7 mph 0.00 in   Overcast
3:13 AM 71.6 °F 69.8 °F 94% 30.01 in 10.0 mi South 9.2 mph - N/A   Overcast
3:28 AM 71.6 °F 69.8 °F 94% 30.02 in 10.0 mi South 8.1 mph - N/A   Overcast
3:53 AM 70.0 °F 69.1 °F 97% 30.00 in 10.0 mi South 6.9 mph - N/A   Overcast
4:17 AM 69.8 °F 69.8 °F 100% 30.01 in 10.0 mi South 4.6 mph - N/A   Overcast
4:24 AM 69.8 °F 69.8 °F 100% 30.01 in 10.0 mi South 4.6 mph - N/A   Overcast
4:32 AM 69.8 °F 68.0 °F 94% 30.00 in 10.0 mi South 5.8 mph - N/A   Overcast
4:53 AM 70.0 °F 68.0 °F 93% 29.98 in 10.0 mi South 5.8 mph - N/A   Overcast
5:43 AM 69.8 °F 68.0 °F 94% 30.01 in 10.0 mi South 5.8 mph - N/A   Overcast
6:14 AM 69.8 °F 68.0 °F 94% 30.01 in 10.0 mi South 8.1 mph - N/A   Overcast
6:24 AM 69.8 °F 69.8 °F 100% 30.01 in 10.0 mi South 8.1 mph - N/A   Overcast
6:32 AM 69.8 °F 69.8 °F 100% 30.01 in 10.0 mi South 6.9 mph - N/A   Overcast
6:53 AM 70.0 °F 69.1 °F 97% 30.00 in 8.0 mi South 6.9 mph - 0.00 in Rain Light Rain
7:53 AM 71.1 °F 69.1 °F 93% 30.01 in 10.0 mi South 4.6 mph - 0.00 in   Overcast
8:32 AM 71.6 °F 69.8 °F 94% 30.03 in 10.0 mi SSW 9.2 mph - N/A   Overcast
8:53 AM 73.0 °F 69.1 °F 87% 30.02 in 10.0 mi SSW 8.1 mph 17.3 mph N/A   Overcast
9:29 AM 73.4 °F 69.8 °F 88% 30.04 in 10.0 mi SSW 12.7 mph 20.7 mph N/A   Scattered Clouds
10:40 AM 77.0 °F 66.2 °F 69% 30.02 in 10.0 mi SSW 11.5 mph 17.3 mph N/A   Mostly Cloudy
10:50 AM 77.0 °F 66.2 °F 69% 30.01 in 10.0 mi South 11.5 mph 19.6 mph N/A   Mostly Cloudy
10:53 AM 78.1 °F 68.0 °F 71% 30.00 in 10.0 mi SSW 13.8 mph - N/A   Mostly Cloudy
11:53 AM 75.9 °F 66.9 °F 74% 29.99 in 10.0 mi WSW 9.2 mph - N/A   Scattered Clouds
12:12 PM 64.4 °F 62.6 °F 94% 30.04 in 1.8 mi NW 11.5 mph 29.9 mph 0.05 in Rain Heavy Rain
12:17 PM 64.4 °F 62.6 °F 94% 30.03 in 2.0 mi NNW 10.4 mph - 0.06 in Rain Rain
12:33 PM 64.4 °F 62.6 °F 94% 30.01 in 1.2 mi NW 5.8 mph - 0.16 in Rain Heavy Rain
12:44 PM 64.4 °F 62.6 °F 94% 30.03 in 1.2 mi West 4.6 mph - 0.24 in Rain , Thunderstorm Heavy Rain
12:53 PM 63.0 °F 63.0 °F 100% 30.01 in 1.5 mi Calm Calm - 0.30 in Rain , Thunderstorm Heavy Thunderstorms and Rain
1:18 PM 62.6 °F 62.6 °F 100% 29.99 in 5.0 mi SE 5.8 mph - 0.07 in Rain Light Rain
1:36 PM 64.4 °F 62.6 °F 94% 29.99 in 9.0 mi SSW 3.5 mph - 0.08 in Rain , Thunderstorm Light Thunderstorms and Rain
1:51 PM 64.4 °F 62.6 °F 94% 30.00 in 4.0 mi South 6.9 mph - 0.10 in Rain Rain
1:53 PM 64.0 °F 63.0 °F 96% 29.99 in 4.0 mi South 6.9 mph - 0.10 in Rain Rain
2:28 PM 62.6 °F 62.6 °F 100% 29.95 in 4.0 mi Variable 4.6 mph - 0.07 in Rain Rain
2:53 PM 63.0 °F 62.1 °F 97% 29.98 in 6.0 mi South 5.8 mph - 0.11 in Rain Light Rain
3:53 PM 63.0 °F 62.1 °F 97% 29.98 in 3.0 mi SE 4.6 mph - 0.19 in Rain Rain
4:35 PM 62.6 °F 62.6 °F 100% 29.98 in 10.0 mi SSE 4.6 mph - 0.07 in Rain Light Rain
4:53 PM 63.0 °F 63.0 °F 100% 29.98 in 10.0 mi SSE 3.5 mph - 0.07 in   Overcast
5:05 PM 62.6 °F 62.6 °F 100% 29.98 in 7.0 mi SSE 5.8 mph - 0.00 in Rain Light Rain
5:27 PM 62.6 °F 62.6 °F 100% 29.99 in 10.0 mi Calm Calm - 0.00 in   Overcast
5:53 PM 63.0 °F 63.0 °F 100% 29.98 in 10.0 mi Calm Calm - 0.01 in   Overcast
6:01 PM 62.6 °F 62.6 °F 100% 29.99 in 10.0 mi South 4.6 mph - 0.00 in Rain Light Rain
6:37 PM 62.6 °F 62.6 °F 100% 30.01 in 5.0 mi Calm Calm - 0.09 in Rain Light Rain
6:44 PM 62.6 °F 62.6 °F 100% 30.02 in 7.0 mi Variable 3.5 mph - 0.09 in Rain Light Rain
6:53 PM 63.0 °F 63.0 °F 100% 30.01 in 10.0 mi Calm Calm - 0.10 in Rain Light Rain
7:10 PM 64.4 °F 62.6 °F 94% 30.01 in 10.0 mi Calm Calm - 0.00 in   Scattered Clouds
7:53 PM 63.0 °F 63.0 °F 100% 30.01 in 7.0 mi Calm Calm - 0.00 in   Mostly Cloudy
8:18 PM 62.6 °F 62.6 °F 100% 30.04 in 9.0 mi Calm Calm - N/A   Overcast
8:33 PM 62.6 °F 62.6 °F 100% 30.04 in 7.0 mi Calm Calm - N/A   Overcast
8:53 PM 63.0 °F 63.0 °F 100% 30.04 in 4.0 mi Calm Calm - N/A   Overcast
9:01 PM 62.6 °F 62.6 °F 100% 30.06 in 4.0 mi Calm Calm - N/A   Overcast
9:15 PM 62.6 °F 62.6 °F 100% 30.06 in 2.5 mi Calm Calm - N/A   Overcast
9:22 PM 62.6 °F 62.6 °F 100% 30.06 in 6.0 mi Calm Calm - N/A   Overcast
9:53 PM 63.0 °F 63.0 °F 100% 30.06 in 10.0 mi Calm Calm - N/A   Overcast
10:05 PM 62.6 °F 62.6 °F 100% 30.07 in 10.0 mi Calm Calm - N/A   Overcast
10:17 PM 62.6 °F 62.6 °F 100% 30.07 in 10.0 mi NNW 6.9 mph - N/A   Overcast
10:46 PM 64.4 °F 62.6 °F 94% 30.08 in 10.0 mi NNW 8.1 mph - N/A   Overcast
10:53 PM 63.0 °F 62.1 °F 97% 30.06 in 10.0 mi NNW 10.4 mph - N/A   Overcast
11:18 PM 64.4 °F 60.8 °F 88% 30.08 in 10.0 mi NNW 11.5 mph - N/A   Overcast
11:26 PM 62.6 °F 60.8 °F 94% 30.08 in 10.0 mi NNW 8.1 mph - N/A   Overcast
11:35 PM 62.6 °F 60.8 °F 94% 30.09 in 10.0 mi NNW 8.1 mph - N/A   Overcast
11:53 PM 63.0 °F 61.0 °F 93% 30.08 in 10.0 mi NNW 9.2 mph - N/A   Overcast